CheckWX is a tool to help pilots better visualize weather data.  It is not intended as a substitute for an official pre-flight weather briefing.

22:50:16 UTC

RCSS METAR
Taipei Songshan Airport
Taipei City, Taiwan
Current

20 mins ago

RCSS 312230Z 28003KT 250V330 9999 -RA FEW006 BKN018 BKN040 19/18 Q1016 NOSIG RMK A3002
Observed
Mar-31 @ 22:30 UTC
Wind
  • 280° at 3 KTS
Visibility
10,000+ meters
Flight Rules
MVFR
Conditions
Light Rain
Cloud Levels
  • Few at 600' AGL
  • Broken at 1,800' AGL
  • Broken at 4,000' AGL
Temperature
19°C / 66°F
Dewpoint
18°C / 64°F
Humidity
94%
Altimeter
30" Hg
Pressure
1015.92 hPa
Previous

50 mins ago

RCSS 312200Z 27008KT 9999 -RA SCT006 BKN025 BKN040 19/18 Q1016 NOSIG RMK A3001 RA AMT 0.2MM
Observed
Mar-31 @ 22:00 UTC
Wind
  • 270° at 8 KTS
Visibility
10,000+ meters
Flight Rules
MVFR
Conditions
Light Rain
Cloud Levels
  • Scattered at 600' AGL
  • Broken at 2,500' AGL
  • Broken at 4,000' AGL
Temperature
19°C / 66°F
Dewpoint
18°C / 64°F
Humidity
94%
Altimeter
30" Hg
Pressure
1015.92 hPa
Previous

2 hours ago

RCSS 312100Z 27008KT 9999 -RA FEW010 BKN025 BKN035 19/18 Q1015 NOSIG RMK A2998 RA AMT 0.4MM
Observed
Mar-31 @ 21:00 UTC
Wind
  • 270° at 8 KTS
Visibility
10,000+ meters
Flight Rules
MVFR
Conditions
Light Rain
Cloud Levels
  • Few at 1,000' AGL
  • Broken at 2,500' AGL
  • Broken at 3,500' AGL
Temperature
19°C / 66°F
Dewpoint
18°C / 64°F
Humidity
94%
Altimeter
29.97" Hg
Pressure
1014.92 hPa